SBOSBO GCI / EGJB
Speedbird OnlineSpeedbird Online GCI / EGJB

Guernsey Airport
01:38 13°C

Location Guernsey, Guernsey
Latitude: 49.435001373291016
Longitude: -2.6019699573516846
Local Time 01:38 on 22 Jun 2024
UTC +1 hours (Europe/Guernsey)
Currency £1 equals GGP 0.99
METAR EGJB 212350Z 20011KT 7000 -DZ SCT003 BKN005 13/13 Q1013 RERA REDZ
TAF TAF EGJB 212259Z 2200/2209 20016KT 9999 FEW004 SCT010 BKN020 PROB40 TEMPO 2200/2205 6000 -RADZ SCT004 BKN010 PROB30 TEMPO 2200/2201 2000 RADZ BR SCT000 BKN002 BECMG 2200/2202 26016KT
Weather As Of 22 Jun 2024 01:33
Description Light intensity drizzle
Wind 20 km/h from South (200°)
Cloud Cover 75%
Precipitation Rain: none, Snow: none
Sunrise 05:04
Sunset 21:20
NOTAM 1 active NOTAM
Rotations During the last 90 days there were
1 flights from PMI
1 flights from GLA
1 flights to PMI
Web Wikipedia
Codes IATA: GCI
ICAO: EGJB
Altitude 102 Meter / 336 Feet
Distance 301 KM / 187 Miles
from London.
Runways
RunwayLength (m)Surface
091583Asphalt
271583Asphalt
Radio
TypeDescriptionFrequency
APPAPP128.65
ATISATIS109.4
GNDGND121.8
TWRTWR119.95
Live ATC



Support Speedbird Online

© 2017-2024 Speedbird Online